sensor_id;sensor_type;location;lat;lon;timestamp;P1;durP1;ratioP1;P2;durP2;ratioP2
69627;SDS011;56850;51.984;5.088;2024-01-27T00:02:12;9.52;;;3.63;;
69627;SDS011;56850;51.984;5.088;2024-01-27T00:04:39;11.82;;;3.47;;
69627;SDS011;56850;51.984;5.088;2024-01-27T00:07:06;10.70;;;3.57;;
69627;SDS011;56850;51.984;5.088;2024-01-27T00:09:33;7.95;;;3.03;;
69627;SDS011;56850;51.984;5.088;2024-01-27T00:12:03;8.40;;;3.15;;
69627;SDS011;56850;51.984;5.088;2024-01-27T00:14:30;10.85;;;3.28;;
69627;SDS011;56850;51.984;5.088;2024-01-27T00:16:57;9.32;;;2.85;;
69627;SDS011;56850;51.984;5.088;2024-01-27T00:19:24;11.00;;;2.93;;
69627;SDS011;56850;51.984;5.088;2024-01-27T00:21:51;13.15;;;3.33;;
69627;SDS011;56850;51.984;5.088;2024-01-27T00:24:18;10.85;;;3.30;;
69627;SDS011;56850;51.984;5.088;2024-01-27T00:26:45;7.43;;;3.13;;
69627;SDS011;56850;51.984;5.088;2024-01-27T00:29:14;7.18;;;2.70;;
69627;SDS011;56850;51.984;5.088;2024-01-27T00:31:41;10.40;;;2.73;;
69627;SDS011;56850;51.984;5.088;2024-01-27T00:34:08;8.55;;;2.78;;
69627;SDS011;56850;51.984;5.088;2024-01-27T00:36:35;9.10;;;2.70;;
69627;SDS011;56850;51.984;5.088;2024-01-27T00:39:05;9.38;;;2.90;;
69627;SDS011;56850;51.984;5.088;2024-01-27T00:41:32;11.50;;;2.97;;
69627;SDS011;56850;51.984;5.088;2024-01-27T00:44:01;12.47;;;2.90;;
69627;SDS011;56850;51.984;5.088;2024-01-27T00:46:28;8.40;;;2.85;;
69627;SDS011;56850;51.984;5.088;2024-01-27T00:48:55;7.57;;;2.92;;
69627;SDS011;56850;51.984;5.088;2024-01-27T00:51:22;8.85;;;3.28;;
69627;SDS011;56850;51.984;5.088;2024-01-27T00:53:50;8.45;;;2.92;;
69627;SDS011;56850;51.984;5.088;2024-01-27T00:56:17;8.73;;;3.07;;
69627;SDS011;56850;51.984;5.088;2024-01-27T00:58:44;6.55;;;2.70;;
69627;SDS011;56850;51.984;5.088;2024-01-27T01:01:11;8.57;;;2.60;;
69627;SDS011;56850;51.984;5.088;2024-01-27T01:03:38;8.32;;;2.72;;
69627;SDS011;56850;51.984;5.088;2024-01-27T01:06:05;13.23;;;3.08;;
69627;SDS011;56850;51.984;5.088;2024-01-27T01:08:32;11.07;;;2.77;;
69627;SDS011;56850;51.984;5.088;2024-01-27T01:10:59;6.13;;;2.45;;
69627;SDS011;56850;51.984;5.088;2024-01-27T01:13:26;7.65;;;2.75;;
69627;SDS011;56850;51.984;5.088;2024-01-27T01:15:53;7.55;;;2.40;;
69627;SDS011;56850;51.984;5.088;2024-01-27T01:18:20;6.78;;;2.67;;
69627;SDS011;56850;51.984;5.088;2024-01-27T01:20:47;6.13;;;2.50;;
69627;SDS011;56850;51.984;5.088;2024-01-27T01:23:14;11.80;;;2.50;;
69627;SDS011;56850;51.984;5.088;2024-01-27T01:25:41;9.85;;;2.95;;
69627;SDS011;56850;51.984;5.088;2024-01-27T01:28:08;10.77;;;2.90;;
69627;SDS011;56850;51.984;5.088;2024-01-27T01:30:34;7.75;;;2.80;;
69627;SDS011;56850;51.984;5.088;2024-01-27T01:33:02;9.13;;;3.10;;
69627;SDS011;56850;51.984;5.088;2024-01-27T01:35:30;8.30;;;2.45;;
69627;SDS011;56850;51.984;5.088;2024-01-27T01:37:57;6.55;;;2.42;;
69627;SDS011;56850;51.984;5.088;2024-01-27T01:40:24;8.90;;;2.50;;
69627;SDS011;56850;51.984;5.088;2024-01-27T01:42:51;9.02;;;3.08;;
69627;SDS011;56850;51.984;5.088;2024-01-27T01:45:18;7.93;;;3.20;;
69627;SDS011;56850;51.984;5.088;2024-01-27T01:47:46;7.70;;;2.75;;
69627;SDS011;56850;51.984;5.088;2024-01-27T01:50:14;8.48;;;2.20;;
69627;SDS011;56850;51.984;5.088;2024-01-27T01:52:41;7.15;;;2.63;;
69627;SDS011;56850;51.984;5.088;2024-01-27T01:55:08;7.53;;;2.35;;
69627;SDS011;56850;51.984;5.088;2024-01-27T01:57:37;6.77;;;2.63;;
69627;SDS011;56850;51.984;5.088;2024-01-27T02:00:08;10.25;;;2.63;;
69627;SDS011;56850;51.984;5.088;2024-01-27T02:02:38;6.10;;;2.25;;
69627;SDS011;56850;51.984;5.088;2024-01-27T02:05:06;6.07;;;2.70;;
69627;SDS011;56850;51.984;5.088;2024-01-27T02:07:35;7.80;;;2.78;;
69627;SDS011;56850;51.984;5.088;2024-01-27T02:10:02;6.10;;;2.40;;
69627;SDS011;56850;51.984;5.088;2024-01-27T02:12:29;7.22;;;2.15;;
69627;SDS011;56850;51.984;5.088;2024-01-27T02:14:56;6.18;;;2.53;;
69627;SDS011;56850;51.984;5.088;2024-01-27T02:17:23;8.27;;;2.40;;
69627;SDS011;56850;51.984;5.088;2024-01-27T02:19:50;6.43;;;2.35;;
69627;SDS011;56850;51.984;5.088;2024-01-27T02:22:17;8.63;;;2.43;;
69627;SDS011;56850;51.984;5.088;2024-01-27T02:24:44;8.82;;;2.72;;
69627;SDS011;56850;51.984;5.088;2024-01-27T02:27:13;7.47;;;2.10;;
69627;SDS011;56850;51.984;5.088;2024-01-27T02:29:39;7.65;;;2.70;;
69627;SDS011;56850;51.984;5.088;2024-01-27T02:32:08;6.88;;;2.50;;
69627;SDS011;56850;51.984;5.088;2024-01-27T02:34:35;8.47;;;2.80;;
69627;SDS011;56850;51.984;5.088;2024-01-27T02:37:02;8.10;;;2.53;;
69627;SDS011;56850;51.984;5.088;2024-01-27T02:39:29;5.72;;;2.42;;
69627;SDS011;56850;51.984;5.088;2024-01-27T02:41:56;6.90;;;2.55;;
69627;SDS011;56850;51.984;5.088;2024-01-27T02:44:23;8.48;;;2.70;;
69627;SDS011;56850;51.984;5.088;2024-01-27T02:46:50;8.43;;;3.37;;
69627;SDS011;56850;51.984;5.088;2024-01-27T02:49:18;8.05;;;2.67;;
69627;SDS011;56850;51.984;5.088;2024-01-27T02:51:45;8.55;;;2.80;;
69627;SDS011;56850;51.984;5.088;2024-01-27T02:54:14;8.25;;;2.45;;
69627;SDS011;56850;51.984;5.088;2024-01-27T02:56:41;7.70;;;2.50;;
69627;SDS011;56850;51.984;5.088;2024-01-27T02:59:11;6.37;;;2.53;;
69627;SDS011;56850;51.984;5.088;2024-01-27T03:01:38;7.03;;;2.75;;
69627;SDS011;56850;51.984;5.088;2024-01-27T03:04:05;8.55;;;2.92;;
69627;SDS011;56850;51.984;5.088;2024-01-27T03:06:32;8.07;;;2.90;;
69627;SDS011;56850;51.984;5.088;2024-01-27T03:08:59;10.00;;;2.88;;
69627;SDS011;56850;51.984;5.088;2024-01-27T03:11:26;7.20;;;2.53;;
69627;SDS011;56850;51.984;5.088;2024-01-27T03:13:53;7.65;;;2.60;;
69627;SDS011;56850;51.984;5.088;2024-01-27T03:16:20;8.93;;;2.50;;
69627;SDS011;56850;51.984;5.088;2024-01-27T03:18:47;8.95;;;2.40;;
69627;SDS011;56850;51.984;5.088;2024-01-27T03:21:14;9.18;;;2.58;;
69627;SDS011;56850;51.984;5.088;2024-01-27T03:23:41;7.63;;;2.30;;
69627;SDS011;56850;51.984;5.088;2024-01-27T03:26:08;8.13;;;2.53;;
69627;SDS011;56850;51.984;5.088;2024-01-27T03:28:35;8.50;;;2.30;;
69627;SDS011;56850;51.984;5.088;2024-01-27T03:31:02;7.63;;;2.78;;
69627;SDS011;56850;51.984;5.088;2024-01-27T03:33:29;9.90;;;2.78;;
69627;SDS011;56850;51.984;5.088;2024-01-27T03:35:57;7.87;;;2.53;;
69627;SDS011;56850;51.984;5.088;2024-01-27T03:38:24;6.60;;;2.65;;
69627;SDS011;56850;51.984;5.088;2024-01-27T03:40:52;8.85;;;3.00;;
69627;SDS011;56850;51.984;5.088;2024-01-27T03:43:20;8.18;;;2.90;;
69627;SDS011;56850;51.984;5.088;2024-01-27T03:45:46;5.85;;;2.45;;
69627;SDS011;56850;51.984;5.088;2024-01-27T03:48:13;11.73;;;2.97;;
69627;SDS011;56850;51.984;5.088;2024-01-27T03:50:40;8.30;;;2.95;;
69627;SDS011;56850;51.984;5.088;2024-01-27T03:53:10;7.25;;;3.33;;
69627;SDS011;56850;51.984;5.088;2024-01-27T03:55:37;9.73;;;2.90;;
69627;SDS011;56850;51.984;5.088;2024-01-27T03:58:04;9.50;;;3.13;;
69627;SDS011;56850;51.984;5.088;2024-01-27T04:00:31;10.83;;;3.10;;
69627;SDS011;56850;51.984;5.088;2024-01-27T04:02:59;11.30;;;3.38;;
69627;SDS011;56850;51.984;5.088;2024-01-27T04:05:28;12.15;;;3.20;;
69627;SDS011;56850;51.984;5.088;2024-01-27T04:07:56;8.07;;;3.40;;
69627;SDS011;56850;51.984;5.088;2024-01-27T04:10:23;8.50;;;3.88;;
69627;SDS011;56850;51.984;5.088;2024-01-27T04:12:50;8.30;;;3.13;;
69627;SDS011;56850;51.984;5.088;2024-01-27T04:15:16;10.57;;;3.63;;
69627;SDS011;56850;51.984;5.088;2024-01-27T04:17:43;7.55;;;2.67;;
69627;SDS011;56850;51.984;5.088;2024-01-27T04:20:11;9.82;;;3.33;;
69627;SDS011;56850;51.984;5.088;2024-01-27T04:22:38;11.35;;;3.65;;
69627;SDS011;56850;51.984;5.088;2024-01-27T04:25:05;9.37;;;3.70;;
69627;SDS011;56850;51.984;5.088;2024-01-27T04:27:36;7.32;;;3.08;;
69627;SDS011;56850;51.984;5.088;2024-01-27T04:30:06;9.30;;;3.85;;
69627;SDS011;56850;51.984;5.088;2024-01-27T04:32:33;8.15;;;2.95;;
69627;SDS011;56850;51.984;5.088;2024-01-27T04:35:00;9.85;;;3.80;;
69627;SDS011;56850;51.984;5.088;2024-01-27T04:37:27;8.17;;;3.53;;
69627;SDS011;56850;51.984;5.088;2024-01-27T04:39:54;10.13;;;3.97;;
69627;SDS011;56850;51.984;5.088;2024-01-27T04:42:21;7.68;;;3.58;;
69627;SDS011;56850;51.984;5.088;2024-01-27T04:44:48;9.07;;;3.70;;
69627;SDS011;56850;51.984;5.088;2024-01-27T04:47:15;8.63;;;3.90;;
69627;SDS011;56850;51.984;5.088;2024-01-27T04:49:43;8.73;;;3.93;;
69627;SDS011;56850;51.984;5.088;2024-01-27T04:52:10;8.85;;;3.67;;
69627;SDS011;56850;51.984;5.088;2024-01-27T04:54:37;9.27;;;4.00;;
69627;SDS011;56850;51.984;5.088;2024-01-27T04:57:04;10.52;;;4.53;;
69627;SDS011;56850;51.984;5.088;2024-01-27T04:59:31;8.90;;;4.38;;
69627;SDS011;56850;51.984;5.088;2024-01-27T05:01:58;10.20;;;4.50;;
69627;SDS011;56850;51.984;5.088;2024-01-27T05:04:25;10.60;;;4.28;;
69627;SDS011;56850;51.984;5.088;2024-01-27T05:06:53;8.55;;;3.58;;
69627;SDS011;56850;51.984;5.088;2024-01-27T05:09:20;9.40;;;4.35;;
69627;SDS011;56850;51.984;5.088;2024-01-27T05:11:47;9.43;;;4.45;;
69627;SDS011;56850;51.984;5.088;2024-01-27T05:14:15;8.73;;;4.17;;
69627;SDS011;56850;51.984;5.088;2024-01-27T05:16:42;9.02;;;4.25;;
69627;SDS011;56850;51.984;5.088;2024-01-27T05:19:09;7.10;;;4.00;;
69627;SDS011;56850;51.984;5.088;2024-01-27T05:21:40;7.43;;;3.67;;
69627;SDS011;56850;51.984;5.088;2024-01-27T05:24:07;11.60;;;4.13;;
69627;SDS011;56850;51.984;5.088;2024-01-27T05:26:34;10.00;;;4.60;;
69627;SDS011;56850;51.984;5.088;2024-01-27T05:29:01;9.35;;;4.90;;
69627;SDS011;56850;51.984;5.088;2024-01-27T05:31:28;11.82;;;5.20;;
69627;SDS011;56850;51.984;5.088;2024-01-27T05:33:55;9.88;;;4.55;;
69627;SDS011;56850;51.984;5.088;2024-01-27T05:36:22;11.75;;;5.03;;
69627;SDS011;56850;51.984;5.088;2024-01-27T05:38:49;8.17;;;4.73;;
69627;SDS011;56850;51.984;5.088;2024-01-27T05:41:16;9.95;;;5.25;;
69627;SDS011;56850;51.984;5.088;2024-01-27T05:43:43;8.23;;;4.28;;
69627;SDS011;56850;51.984;5.088;2024-01-27T05:46:10;12.57;;;5.00;;
69627;SDS011;56850;51.984;5.088;2024-01-27T05:48:37;8.18;;;4.85;;
69627;SDS011;56850;51.984;5.088;2024-01-27T05:51:04;9.70;;;5.20;;
69627;SDS011;56850;51.984;5.088;2024-01-27T05:53:31;9.45;;;4.95;;
69627;SDS011;56850;51.984;5.088;2024-01-27T05:56:02;11.13;;;5.35;;
69627;SDS011;56850;51.984;5.088;2024-01-27T05:58:29;10.40;;;5.55;;
69627;SDS011;56850;51.984;5.088;2024-01-27T06:00:56;8.15;;;4.70;;
69627;SDS011;56850;51.984;5.088;2024-01-27T06:03:23;9.80;;;5.50;;
69627;SDS011;56850;51.984;5.088;2024-01-27T06:05:50;9.77;;;5.57;;
69627;SDS011;56850;51.984;5.088;2024-01-27T06:08:17;11.48;;;5.70;;
69627;SDS011;56850;51.984;5.088;2024-01-27T06:10:46;10.50;;;5.78;;
69627;SDS011;56850;51.984;5.088;2024-01-27T06:13:13;10.20;;;5.72;;
69627;SDS011;56850;51.984;5.088;2024-01-27T06:15:40;15.27;;;6.10;;
69627;SDS011;56850;51.984;5.088;2024-01-27T06:18:07;9.00;;;4.70;;
69627;SDS011;56850;51.984;5.088;2024-01-27T06:20:34;9.07;;;5.93;;
69627;SDS011;56850;51.984;5.088;2024-01-27T06:23:03;12.68;;;6.10;;
69627;SDS011;56850;51.984;5.088;2024-01-27T06:25:30;9.70;;;5.40;;
69627;SDS011;56850;51.984;5.088;2024-01-27T06:27:56;9.87;;;5.73;;
69627;SDS011;56850;51.984;5.088;2024-01-27T06:30:24;9.70;;;5.72;;
69627;SDS011;56850;51.984;5.088;2024-01-27T06:32:51;9.88;;;5.93;;
69627;SDS011;56850;51.984;5.088;2024-01-27T06:35:18;15.40;;;5.80;;
69627;SDS011;56850;51.984;5.088;2024-01-27T06:37:45;15.07;;;5.95;;
69627;SDS011;56850;51.984;5.088;2024-01-27T06:40:12;8.87;;;5.67;;
69627;SDS011;56850;51.984;5.088;2024-01-27T06:42:39;10.32;;;5.60;;
69627;SDS011;56850;51.984;5.088;2024-01-27T06:45:06;13.20;;;6.55;;
69627;SDS011;56850;51.984;5.088;2024-01-27T06:47:33;11.98;;;6.18;;
69627;SDS011;56850;51.984;5.088;2024-01-27T06:50:01;12.57;;;6.05;;
69627;SDS011;56850;51.984;5.088;2024-01-27T06:52:28;12.03;;;6.27;;
69627;SDS011;56850;51.984;5.088;2024-01-27T06:54:55;13.50;;;6.43;;
69627;SDS011;56850;51.984;5.088;2024-01-27T06:57:22;11.40;;;5.60;;
69627;SDS011;56850;51.984;5.088;2024-01-27T06:59:51;10.07;;;5.50;;
69627;SDS011;56850;51.984;5.088;2024-01-27T07:02:22;12.38;;;6.18;;
69627;SDS011;56850;51.984;5.088;2024-01-27T07:04:50;15.37;;;5.90;;
69627;SDS011;56850;51.984;5.088;2024-01-27T07:07:18;13.23;;;5.85;;
69627;SDS011;56850;51.984;5.088;2024-01-27T07:09:48;11.27;;;5.80;;
69627;SDS011;56850;51.984;5.088;2024-01-27T07:12:15;10.45;;;6.63;;
69627;SDS011;56850;51.984;5.088;2024-01-27T07:14:42;12.65;;;6.05;;
69627;SDS011;56850;51.984;5.088;2024-01-27T07:17:09;16.00;;;6.13;;
69627;SDS011;56850;51.984;5.088;2024-01-27T07:19:36;11.05;;;6.20;;
69627;SDS011;56850;51.984;5.088;2024-01-27T07:22:03;9.27;;;5.38;;
69627;SDS011;56850;51.984;5.088;2024-01-27T07:24:33;12.40;;;6.38;;
69627;SDS011;56850;51.984;5.088;2024-01-27T07:27:00;11.68;;;6.25;;
69627;SDS011;56850;51.984;5.088;2024-01-27T07:29:27;11.03;;;6.17;;
69627;SDS011;56850;51.984;5.088;2024-01-27T07:31:54;10.88;;;6.28;;
69627;SDS011;56850;51.984;5.088;2024-01-27T07:34:22;12.57;;;6.35;;
69627;SDS011;56850;51.984;5.088;2024-01-27T07:36:49;12.18;;;6.47;;
69627;SDS011;56850;51.984;5.088;2024-01-27T07:39:16;13.68;;;7.18;;
69627;SDS011;56850;51.984;5.088;2024-01-27T07:41:43;11.83;;;5.93;;
69627;SDS011;56850;51.984;5.088;2024-01-27T07:44:10;14.35;;;6.45;;
69627;SDS011;56850;51.984;5.088;2024-01-27T07:46:38;12.05;;;5.70;;
69627;SDS011;56850;51.984;5.088;2024-01-27T07:49:08;11.57;;;6.50;;
69627;SDS011;56850;51.984;5.088;2024-01-27T07:51:36;10.13;;;6.47;;
69627;SDS011;56850;51.984;5.088;2024-01-27T07:54:03;11.60;;;5.63;;
69627;SDS011;56850;51.984;5.088;2024-01-27T07:56:30;10.20;;;5.85;;
69627;SDS011;56850;51.984;5.088;2024-01-27T07:58:58;11.35;;;5.82;;
69627;SDS011;56850;51.984;5.088;2024-01-27T08:01:26;10.20;;;6.22;;
69627;SDS011;56850;51.984;5.088;2024-01-27T08:03:53;12.73;;;6.28;;
69627;SDS011;56850;51.984;5.088;2024-01-27T08:06:27;12.60;;;6.03;;
69627;SDS011;56850;51.984;5.088;2024-01-27T08:08:56;12.45;;;5.60;;
69627;SDS011;56850;51.984;5.088;2024-01-27T08:11:23;15.40;;;6.85;;
69627;SDS011;56850;51.984;5.088;2024-01-27T08:13:50;12.82;;;6.35;;
69627;SDS011;56850;51.984;5.088;2024-01-27T08:16:20;14.43;;;6.43;;
69627;SDS011;56850;51.984;5.088;2024-01-27T08:18:47;10.00;;;6.20;;
69627;SDS011;56850;51.984;5.088;2024-01-27T08:21:14;12.75;;;6.00;;
69627;SDS011;56850;51.984;5.088;2024-01-27T08:23:41;10.82;;;6.32;;
69627;SDS011;56850;51.984;5.088;2024-01-27T08:26:08;11.80;;;6.03;;
69627;SDS011;56850;51.984;5.088;2024-01-27T08:28:35;11.98;;;6.03;;
69627;SDS011;56850;51.984;5.088;2024-01-27T08:31:02;14.50;;;6.13;;
69627;SDS011;56850;51.984;5.088;2024-01-27T08:33:29;13.15;;;5.93;;
69627;SDS011;56850;51.984;5.088;2024-01-27T08:35:56;12.38;;;5.82;;
69627;SDS011;56850;51.984;5.088;2024-01-27T08:38:23;10.95;;;5.88;;
69627;SDS011;56850;51.984;5.088;2024-01-27T08:40:50;13.30;;;5.32;;
69627;SDS011;56850;51.984;5.088;2024-01-27T08:43:17;11.13;;;6.17;;
69627;SDS011;56850;51.984;5.088;2024-01-27T08:45:44;10.98;;;6.05;;
69627;SDS011;56850;51.984;5.088;2024-01-27T08:48:11;11.15;;;6.85;;
69627;SDS011;56850;51.984;5.088;2024-01-27T08:50:39;10.95;;;6.00;;
69627;SDS011;56850;51.984;5.088;2024-01-27T08:53:06;10.63;;;6.05;;
69627;SDS011;56850;51.984;5.088;2024-01-27T08:55:33;9.60;;;6.23;;
69627;SDS011;56850;51.984;5.088;2024-01-27T08:57:59;11.98;;;5.97;;
69627;SDS011;56850;51.984;5.088;2024-01-27T09:00:26;15.07;;;6.40;;
69627;SDS011;56850;51.984;5.088;2024-01-27T09:02:54;11.60;;;5.97;;
69627;SDS011;56850;51.984;5.088;2024-01-27T09:05:21;13.27;;;5.95;;
69627;SDS011;56850;51.984;5.088;2024-01-27T09:07:48;11.37;;;5.83;;
69627;SDS011;56850;51.984;5.088;2024-01-27T09:10:15;12.07;;;5.68;;
69627;SDS011;56850;51.984;5.088;2024-01-27T09:12:42;14.30;;;6.97;;
69627;SDS011;56850;51.984;5.088;2024-01-27T09:15:10;11.30;;;6.15;;
69627;SDS011;56850;51.984;5.088;2024-01-27T09:17:37;11.48;;;5.82;;
69627;SDS011;56850;51.984;5.088;2024-01-27T09:20:04;12.37;;;7.27;;
69627;SDS011;56850;51.984;5.088;2024-01-27T09:22:32;14.77;;;6.75;;
69627;SDS011;56850;51.984;5.088;2024-01-27T09:24:59;13.90;;;6.07;;
69627;SDS011;56850;51.984;5.088;2024-01-27T09:27:26;11.70;;;6.10;;
69627;SDS011;56850;51.984;5.088;2024-01-27T09:29:53;13.40;;;6.50;;
69627;SDS011;56850;51.984;5.088;2024-01-27T09:32:20;15.00;;;6.73;;
69627;SDS011;56850;51.984;5.088;2024-01-27T09:34:47;13.68;;;6.25;;
69627;SDS011;56850;51.984;5.088;2024-01-27T09:37:14;14.35;;;6.50;;
69627;SDS011;56850;51.984;5.088;2024-01-27T09:39:41;14.63;;;6.13;;
69627;SDS011;56850;51.984;5.088;2024-01-27T09:42:08;16.08;;;6.85;;
69627;SDS011;56850;51.984;5.088;2024-01-27T09:44:44;11.73;;;6.67;;
69627;SDS011;56850;51.984;5.088;2024-01-27T09:47:14;15.85;;;6.47;;
69627;SDS011;56850;51.984;5.088;2024-01-27T09:49:42;16.33;;;7.20;;
69627;SDS011;56850;51.984;5.088;2024-01-27T09:52:09;12.10;;;6.40;;
69627;SDS011;56850;51.984;5.088;2024-01-27T09:54:36;13.90;;;7.30;;
69627;SDS011;56850;51.984;5.088;2024-01-27T09:57:03;17.97;;;7.63;;
69627;SDS011;56850;51.984;5.088;2024-01-27T09:59:34;13.25;;;6.55;;
69627;SDS011;56850;51.984;5.088;2024-01-27T10:02:02;15.32;;;7.15;;
69627;SDS011;56850;51.984;5.088;2024-01-27T10:04:35;23.05;;;7.38;;
69627;SDS011;56850;51.984;5.088;2024-01-27T10:07:02;19.55;;;8.18;;
69627;SDS011;56850;51.984;5.088;2024-01-27T10:09:30;17.07;;;7.37;;
69627;SDS011;56850;51.984;5.088;2024-01-27T10:11:57;18.05;;;7.20;;
69627;SDS011;56850;51.984;5.088;2024-01-27T10:14:40;18.95;;;6.70;;
69627;SDS011;56850;51.984;5.088;2024-01-27T10:17:11;15.40;;;7.00;;
69627;SDS011;56850;51.984;5.088;2024-01-27T10:19:38;18.13;;;7.03;;
69627;SDS011;56850;51.984;5.088;2024-01-27T10:22:10;11.60;;;6.63;;
69627;SDS011;56850;51.984;5.088;2024-01-27T10:24:37;12.18;;;7.10;;
69627;SDS011;56850;51.984;5.088;2024-01-27T10:27:05;14.68;;;6.75;;
69627;SDS011;56850;51.984;5.088;2024-01-27T10:29:35;14.40;;;6.40;;
69627;SDS011;56850;51.984;5.088;2024-01-27T10:32:09;12.10;;;6.65;;
69627;SDS011;56850;51.984;5.088;2024-01-27T10:34:37;15.37;;;7.23;;
69627;SDS011;56850;51.984;5.088;2024-01-27T10:37:04;14.40;;;7.82;;
69627;SDS011;56850;51.984;5.088;2024-01-27T10:39:31;15.38;;;8.07;;
69627;SDS011;56850;51.984;5.088;2024-01-27T10:41:58;13.82;;;7.55;;
69627;SDS011;56850;51.984;5.088;2024-01-27T10:44:30;13.48;;;6.93;;
69627;SDS011;56850;51.984;5.088;2024-01-27T10:47:01;13.57;;;6.67;;
69627;SDS011;56850;51.984;5.088;2024-01-27T10:49:29;16.48;;;6.97;;
69627;SDS011;56850;51.984;5.088;2024-01-27T10:52:00;13.23;;;6.72;;
69627;SDS011;56850;51.984;5.088;2024-01-27T10:54:34;14.55;;;6.78;;
69627;SDS011;56850;51.984;5.088;2024-01-27T10:57:02;13.68;;;6.78;;
69627;SDS011;56850;51.984;5.088;2024-01-27T10:59:29;14.57;;;6.67;;
69627;SDS011;56850;51.984;5.088;2024-01-27T11:01:58;18.13;;;7.03;;
69627;SDS011;56850;51.984;5.088;2024-01-27T11:04:26;18.08;;;7.30;;
69627;SDS011;56850;51.984;5.088;2024-01-27T11:06:55;17.50;;;7.93;;
69627;SDS011;56850;51.984;5.088;2024-01-27T11:09:24;14.00;;;6.55;;
69627;SDS011;56850;51.984;5.088;2024-01-27T11:11:52;12.33;;;6.73;;
69627;SDS011;56850;51.984;5.088;2024-01-27T11:14:24;14.57;;;6.85;;
69627;SDS011;56850;51.984;5.088;2024-01-27T11:16:54;14.32;;;6.95;;
69627;SDS011;56850;51.984;5.088;2024-01-27T11:22:25;11.73;;;7.13;;
69627;SDS011;56850;51.984;5.088;2024-01-27T11:25:07;13.97;;;6.23;;
69627;SDS011;56850;51.984;5.088;2024-01-27T11:27:50;12.63;;;6.30;;
69627;SDS011;56850;51.984;5.088;2024-01-27T11:30:29;14.82;;;6.93;;
69627;SDS011;56850;51.984;5.088;2024-01-27T11:33:02;11.90;;;5.70;;
69627;SDS011;56850;51.984;5.088;2024-01-27T11:35:31;15.52;;;7.40;;
69627;SDS011;56850;51.984;5.088;2024-01-27T11:37:58;15.23;;;6.50;;
69627;SDS011;56850;51.984;5.088;2024-01-27T11:40:28;14.50;;;6.32;;
69627;SDS011;56850;51.984;5.088;2024-01-27T11:42:56;17.92;;;5.80;;
69627;SDS011;56850;51.984;5.088;2024-01-27T11:45:27;16.67;;;6.85;;
69627;SDS011;56850;51.984;5.088;2024-01-27T11:48:02;15.90;;;6.35;;
69627;SDS011;56850;51.984;5.088;2024-01-27T11:50:30;17.13;;;6.53;;
69627;SDS011;56850;51.984;5.088;2024-01-27T11:52:57;18.33;;;6.38;;
69627;SDS011;56850;51.984;5.088;2024-01-27T11:55:26;15.55;;;6.30;;
69627;SDS011;56850;51.984;5.088;2024-01-27T11:57:56;13.38;;;6.07;;
69627;SDS011;56850;51.984;5.088;2024-01-27T12:00:22;43.55;;;7.35;;
69627;SDS011;56850;51.984;5.088;2024-01-27T12:02:52;17.90;;;6.03;;
69627;SDS011;56850;51.984;5.088;2024-01-27T12:05:20;14.52;;;6.10;;
69627;SDS011;56850;51.984;5.088;2024-01-27T12:07:48;15.57;;;5.72;;
69627;SDS011;56850;51.984;5.088;2024-01-27T12:10:14;21.02;;;5.90;;
69627;SDS011;56850;51.984;5.088;2024-01-27T12:12:41;16.25;;;6.18;;
69627;SDS011;56850;51.984;5.088;2024-01-27T12:15:08;15.00;;;6.10;;
69627;SDS011;56850;51.984;5.088;2024-01-27T12:17:38;19.10;;;6.78;;
69627;SDS011;56850;51.984;5.088;2024-01-27T12:20:05;18.42;;;6.47;;
69627;SDS011;56850;51.984;5.088;2024-01-27T12:22:44;15.25;;;6.30;;
69627;SDS011;56850;51.984;5.088;2024-01-27T12:25:14;14.95;;;5.95;;
69627;SDS011;56850;51.984;5.088;2024-01-27T12:27:41;17.90;;;5.53;;
69627;SDS011;56850;51.984;5.088;2024-01-27T12:30:09;21.50;;;7.10;;
69627;SDS011;56850;51.984;5.088;2024-01-27T12:32:39;17.70;;;6.18;;
69627;SDS011;56850;51.984;5.088;2024-01-27T12:35:13;14.77;;;6.13;;
69627;SDS011;56850;51.984;5.088;2024-01-27T12:37:42;16.30;;;6.63;;
69627;SDS011;56850;51.984;5.088;2024-01-27T12:40:23;12.23;;;5.70;;
69627;SDS011;56850;51.984;5.088;2024-01-27T12:42:50;15.35;;;6.15;;
69627;SDS011;56850;51.984;5.088;2024-01-27T12:45:17;14.50;;;5.93;;
69627;SDS011;56850;51.984;5.088;2024-01-27T12:47:45;16.45;;;6.32;;
69627;SDS011;56850;51.984;5.088;2024-01-27T12:50:12;15.45;;;6.00;;
69627;SDS011;56850;51.984;5.088;2024-01-27T12:52:39;15.93;;;6.00;;
69627;SDS011;56850;51.984;5.088;2024-01-27T12:55:06;11.52;;;5.25;;
69627;SDS011;56850;51.984;5.088;2024-01-27T12:57:34;11.93;;;5.38;;
69627;SDS011;56850;51.984;5.088;2024-01-27T13:00:01;14.85;;;6.10;;
69627;SDS011;56850;51.984;5.088;2024-01-27T13:02:36;14.25;;;5.60;;
69627;SDS011;56850;51.984;5.088;2024-01-27T13:05:03;13.67;;;6.13;;
69627;SDS011;56850;51.984;5.088;2024-01-27T13:07:31;12.30;;;6.20;;
69627;SDS011;56850;51.984;5.088;2024-01-27T13:09:58;14.25;;;5.88;;
69627;SDS011;56850;51.984;5.088;2024-01-27T13:12:25;13.65;;;5.78;;
69627;SDS011;56850;51.984;5.088;2024-01-27T13:14:52;16.05;;;6.40;;
69627;SDS011;56850;51.984;5.088;2024-01-27T13:17:21;21.93;;;6.13;;
69627;SDS011;56850;51.984;5.088;2024-01-27T13:19:48;19.90;;;7.13;;
69627;SDS011;56850;51.984;5.088;2024-01-27T13:22:17;21.08;;;6.55;;
69627;SDS011;56850;51.984;5.088;2024-01-27T13:24:44;22.30;;;6.30;;
69627;SDS011;56850;51.984;5.088;2024-01-27T13:27:11;15.68;;;5.97;;
69627;SDS011;56850;51.984;5.088;2024-01-27T13:29:41;20.37;;;6.17;;
69627;SDS011;56850;51.984;5.088;2024-01-27T13:32:08;18.92;;;5.13;;
69627;SDS011;56850;51.984;5.088;2024-01-27T13:34:35;18.88;;;5.95;;
69627;SDS011;56850;51.984;5.088;2024-01-27T13:37:05;16.50;;;6.00;;
69627;SDS011;56850;51.984;5.088;2024-01-27T13:39:34;17.63;;;5.75;;
69627;SDS011;56850;51.984;5.088;2024-01-27T13:42:05;14.37;;;5.63;;
69627;SDS011;56850;51.984;5.088;2024-01-27T13:44:34;14.23;;;5.03;;
69627;SDS011;56850;51.984;5.088;2024-01-27T13:47:05;15.95;;;5.50;;
69627;SDS011;56850;51.984;5.088;2024-01-27T13:49:45;12.07;;;4.85;;
69627;SDS011;56850;51.984;5.088;2024-01-27T13:52:16;12.05;;;5.10;;
69627;SDS011;56850;51.984;5.088;2024-01-27T13:54:44;13.17;;;4.90;;
69627;SDS011;56850;51.984;5.088;2024-01-27T13:57:15;13.57;;;5.07;;
69627;SDS011;56850;51.984;5.088;2024-01-27T13:59:45;15.93;;;5.30;;
69627;SDS011;56850;51.984;5.088;2024-01-27T14:02:13;15.27;;;4.82;;
69627;SDS011;56850;51.984;5.088;2024-01-27T14:04:43;12.35;;;5.07;;
69627;SDS011;56850;51.984;5.088;2024-01-27T14:07:10;16.10;;;5.60;;
69627;SDS011;56850;51.984;5.088;2024-01-27T14:09:38;9.70;;;4.63;;
69627;SDS011;56850;51.984;5.088;2024-01-27T14:12:16;13.82;;;5.10;;
69627;SDS011;56850;51.984;5.088;2024-01-27T14:14:43;13.70;;;4.63;;
69627;SDS011;56850;51.984;5.088;2024-01-27T14:17:10;13.75;;;4.80;;
69627;SDS011;56850;51.984;5.088;2024-01-27T14:19:37;13.33;;;5.07;;
69627;SDS011;56850;51.984;5.088;2024-01-27T14:22:11;9.63;;;4.93;;
69627;SDS011;56850;51.984;5.088;2024-01-27T14:25:07;10.75;;;5.00;;
69627;SDS011;56850;51.984;5.088;2024-01-27T14:27:43;13.05;;;4.93;;
69627;SDS011;56850;51.984;5.088;2024-01-27T14:30:11;11.75;;;4.25;;
69627;SDS011;56850;51.984;5.088;2024-01-27T14:32:56;14.67;;;4.77;;
69627;SDS011;56850;51.984;5.088;2024-01-27T14:35:23;8.80;;;4.10;;
69627;SDS011;56850;51.984;5.088;2024-01-27T14:37:55;11.95;;;4.53;;
69627;SDS011;56850;51.984;5.088;2024-01-27T14:40:23;14.63;;;4.43;;
69627;SDS011;56850;51.984;5.088;2024-01-27T14:43:07;10.98;;;4.30;;
69627;SDS011;56850;51.984;5.088;2024-01-27T14:45:41;13.87;;;5.43;;
69627;SDS011;56850;51.984;5.088;2024-01-27T14:48:09;11.05;;;4.50;;